Time;durP1;ratioP1;P1;durP2;ratioP2;P2;SDS_P1;SDS_P2;PMS_P1;PMS_P2;Temp;Humidity;BMP_temperature;BMP_pressure;BME280_temperature;BME280_humidity;BME280_pressure;Samples;Min_cycle;Max_cycle;Signal;HPM_P1;HPM_P2
2021/03/12 00:02:11;;;;;;;21.45;4.18;;;6.10;90.50;;;;;;5121149;28;20054;-75
2021/03/12 00:04:37;;;;;;;18.48;4.25;;;6.00;90.40;;;;;;5120105;28;20047;-78
2021/03/12 00:07:05;;;;;;;23.55;4.18;;;6.00;90.50;;;;;;5121650;28;20036;-77
2021/03/12 00:09:32;;;;;;;23.98;5.25;;;6.00;90.60;;;;;;5119919;28;20045;-76
2021/03/12 00:11:58;;;;;;;25.33;4.28;;;6.00;90.50;;;;;;5118404;27;20044;-77
2021/03/12 00:14:24;;;;;;;18.42;4.57;;;6.00;90.40;;;;;;5119037;27;20146;-77
2021/03/12 00:16:50;;;;;;;19.48;3.80;;;6.00;90.30;;;;;;5119536;28;20043;-77
2021/03/12 00:19:16;;;;;;;19.50;5.13;;;6.00;90.40;;;;;;5119120;28;20073;-77
2021/03/12 00:21:43;;;;;;;31.52;5.38;;;6.20;90.60;;;;;;5119130;28;20043;-76
2021/03/12 00:24:10;;;;;;;21.45;4.30;;;5.90;90.60;;;;;;5119475;28;20321;-77
2021/03/12 00:26:36;;;;;;;18.63;3.72;;;5.90;90.60;;;;;;5118829;28;20044;-77
2021/03/12 00:29:02;;;;;;;32.60;6.22;;;6.00;90.60;;;;;;5118786;28;20035;-76
2021/03/12 00:31:29;;;;;;;25.00;3.92;;;6.30;90.60;;;;;;5119146;28;20038;-78
2021/03/12 00:33:55;;;;;;;20.90;3.55;;;6.00;90.50;;;;;;5118607;28;20047;-77
2021/03/12 00:36:21;;;;;;;23.25;5.63;;;6.00;90.60;;;;;;5118921;28;20044;-77
2021/03/12 00:38:47;;;;;;;17.20;4.07;;;6.00;90.60;;;;;;5118449;28;20047;-76
2021/03/12 00:41:14;;;;;;;26.15;3.47;;;6.00;90.50;;;;;;5118261;28;20055;-76
2021/03/12 00:43:40;;;;;;;22.60;3.42;;;6.10;90.40;;;;;;5120156;28;20062;-78
2021/03/12 00:46:09;;;;;;;22.52;4.20;;;6.10;90.30;;;;;;5120502;28;20058;-78
2021/03/12 00:48:36;;;;;;;24.45;4.15;;;6.10;90.30;;;;;;5118521;28;20046;-77
2021/03/12 00:51:05;;;;;;;21.70;4.38;;;6.10;90.30;;;;;;5117258;28;20055;-77
2021/03/12 00:53:32;;;;;;;16.48;4.30;;;6.10;90.30;;;;;;5118320;28;20070;-78
2021/03/12 00:55:58;;;;;;;25.25;4.00;;;6.10;90.30;;;;;;5119153;28;20427;-77
2021/03/12 00:58:26;;;;;;;19.98;3.92;;;6.10;90.10;;;;;;5118571;28;20047;-77
2021/03/12 01:00:52;;;;;;;20.08;4.13;;;6.10;90.10;;;;;;5118375;28;20047;-78
2021/03/12 01:03:18;;;;;;;27.05;3.88;;;6.20;89.90;;;;;;5117681;28;20055;-77
2021/03/12 01:05:44;;;;;;;23.25;3.67;;;6.20;89.70;;;;;;5118178;28;20032;-78
2021/03/12 01:08:12;;;;;;;23.52;4.80;;;6.20;89.60;;;;;;5118109;28;20035;-77
2021/03/12 01:10:39;;;;;;;20.17;3.30;;;6.20;89.90;;;;;;5118058;28;20066;-77
2021/03/12 01:13:06;;;;;;;22.15;4.13;;;6.10;90.00;;;;;;5117707;28;20063;-77
2021/03/12 01:15:32;;;;;;;22.90;4.10;;;6.10;89.90;;;;;;5118068;28;20055;-78
2021/03/12 01:17:59;;;;;;;19.77;3.90;;;6.20;89.90;;;;;;5118386;28;20031;-78
2021/03/12 01:20:28;;;;;;;19.90;3.78;;;6.30;89.80;;;;;;5118076;28;20046;-78
2021/03/12 01:22:58;;;;;;;14.82;3.38;;;6.20;89.70;;;;;;5117900;28;20059;-77
2021/03/12 01:25:28;;;;;;;20.95;4.40;;;6.20;89.70;;;;;;5117608;27;20047;-77
2021/03/12 01:27:57;;;;;;;22.88;5.43;;;6.20;89.60;;;;;;5118136;28;20055;-77
2021/03/12 01:30:26;;;;;;;23.10;3.60;;;6.20;89.80;;;;;;5120711;28;20051;-77
2021/03/12 01:32:53;;;;;;;20.83;3.85;;;6.20;89.70;;;;;;5117451;28;20048;-78
2021/03/12 01:35:19;;;;;;;22.08;3.88;;;6.20;89.60;;;;;;5118185;28;20409;-77
2021/03/12 01:37:46;;;;;;;23.15;4.32;;;6.20;89.60;;;;;;5117520;28;20051;-75
2021/03/12 01:40:16;;;;;;;14.18;3.78;;;6.20;89.60;;;;;;5116944;28;20048;-76
2021/03/12 01:42:43;;;;;;;19.77;4.03;;;6.30;89.90;;;;;;5117213;28;20040;-76
2021/03/12 01:45:17;;;;;;;20.88;6.07;;;6.20;89.90;;;;;;5117365;28;20043;-76
2021/03/12 01:47:46;;;;;;;19.83;4.35;;;6.20;90.00;;;;;;5118001;28;20387;-76
2021/03/12 01:50:12;;;;;;;22.10;4.22;;;6.20;89.80;;;;;;5117138;28;20036;-76
2021/03/12 01:52:39;;;;;;;20.23;4.03;;;6.10;89.70;;;;;;5117256;28;20047;-77
2021/03/12 01:55:09;;;;;;;18.30;3.88;;;6.20;89.00;;;;;;5117259;28;20722;-78
2021/03/12 01:57:36;;;;;;;21.00;3.47;;;6.10;89.20;;;;;;5116915;28;20047;-78
2021/03/12 02:00:04;;;;;;;20.95;3.78;;;6.10;89.40;;;;;;5117531;28;20050;-78
2021/03/12 02:02:30;;;;;;;18.75;3.03;;;6.10;89.20;;;;;;5116924;28;20344;-75
2021/03/12 02:05:01;;;;;;;20.55;3.80;;;6.10;89.40;;;;;;5116984;28;20046;-77
2021/03/12 02:07:29;;;;;;;21.13;4.18;;;6.10;89.30;;;;;;5116827;28;20035;-78
2021/03/12 02:09:58;;;;;;;16.38;3.70;;;6.10;89.10;;;;;;5115659;28;20051;-77
2021/03/12 02:12:34;;;;;;;21.73;3.90;;;6.10;89.30;;;;;;5121742;28;20043;-78
2021/03/12 02:15:06;;;;;;;16.58;3.53;;;6.10;89.40;;;;;;5118447;27;20043;-77
2021/03/12 02:17:48;;;;;;;17.27;2.78;;;6.10;88.90;;;;;;5116638;28;20320;-77
2021/03/12 02:20:31;;;;;;;26.23;5.35;;;6.10;89.00;;;;;;5116540;28;20050;-77
2021/03/12 02:23:11;;;;;;;20.77;3.00;;;6.10;89.20;;;;;;5116747;28;20047;-77
2021/03/12 02:25:45;;;;;;;23.02;3.95;;;6.10;88.60;;;;;;5116574;28;20043;-77
2021/03/12 02:28:12;;;;;;;17.80;3.38;;;6.10;88.90;;;;;;5116450;28;20094;-77
2021/03/12 02:30:39;;;;;;;17.30;3.97;;;6.00;89.00;;;;;;5116328;28;20047;-77
2021/03/12 02:33:06;;;;;;;20.55;4.20;;;6.00;89.10;;;;;;5116800;28;20436;-77
2021/03/12 02:35:33;;;;;;;26.95;3.88;;;6.00;89.10;;;;;;5116748;28;20405;-77
2021/03/12 02:38:01;;;;;;;18.48;3.30;;;5.90;89.20;;;;;;5116851;28;20452;-78
2021/03/12 02:40:28;;;;;;;16.88;3.35;;;5.80;89.40;;;;;;5119130;28;20043;-78
2021/03/12 02:42:54;;;;;;;16.05;2.92;;;5.90;89.10;;;;;;5116370;28;20332;-77
2021/03/12 02:45:21;;;;;;;19.33;3.13;;;5.80;89.00;;;;;;5117155;28;20043;-77
2021/03/12 02:47:47;;;;;;;26.00;4.82;;;5.80;89.10;;;;;;5116517;28;20040;-77
2021/03/12 02:50:14;;;;;;;17.20;3.13;;;5.80;89.10;;;;;;5115854;28;20467;-78
2021/03/12 02:52:42;;;;;;;26.52;4.38;;;5.80;89.10;;;;;;5116169;28;20044;-78
2021/03/12 02:55:09;;;;;;;19.85;3.60;;;5.80;89.30;;;;;;5116100;28;20050;-77
2021/03/12 02:57:38;;;;;;;22.90;4.10;;;5.80;90.00;;;;;;5118919;28;20047;-77
2021/03/12 03:00:05;;;;;;;18.48;2.97;;;5.80;89.50;;;;;;5115518;28;20421;-77
2021/03/12 03:02:32;;;;;;;26.67;4.82;;;5.70;89.70;;;;;;5116270;28;20040;-76
2021/03/12 03:05:00;;;;;;;15.15;2.92;;;5.80;89.40;;;;;;5115958;28;20048;-77
2021/03/12 03:07:27;;;;;;;21.75;4.63;;;5.80;89.60;;;;;;5115766;28;20040;-79
2021/03/12 03:09:54;;;;;;;21.63;4.75;;;5.70;89.50;;;;;;5115997;28;20043;-78
2021/03/12 03:12:24;;;;;;;18.33;3.67;;;5.70;89.60;;;;;;5115524;28;20047;-78
2021/03/12 03:14:56;;;;;;;22.58;3.28;;;5.70;89.30;;;;;;5115338;28;20036;-79
2021/03/12 03:17:23;;;;;;;18.45;3.38;;;5.60;89.50;;;;;;5116055;28;20062;-78
2021/03/12 03:19:51;;;;;;;15.48;3.33;;;5.60;89.70;;;;;;5115867;28;20409;-78
2021/03/12 03:22:19;;;;;;;18.10;3.50;;;5.50;89.50;;;;;;5115993;28;20039;-79
2021/03/12 03:24:46;;;;;;;19.98;3.40;;;5.50;89.40;;;;;;5115538;28;20056;-77
2021/03/12 03:27:13;;;;;;;16.20;4.57;;;5.40;89.70;;;;;;5117127;28;20050;-78
2021/03/12 03:29:46;;;;;;;;;;;5.40;89.70;;;;;;5120380;28;20046;-79
2021/03/12 03:32:13;;;;;;;25.13;3.55;;;5.30;89.50;;;;;;5118933;28;19915;-78
2021/03/12 03:34:42;;;;;;;19.50;3.92;;;5.30;90.00;;;;;;5119895;27;20048;-79
2021/03/12 03:37:08;;;;;;;25.08;4.60;;;5.20;90.00;;;;;;5119801;28;20054;-78
2021/03/12 03:39:35;;;;;;;20.42;3.72;;;5.50;90.10;;;;;;5119620;28;20055;-80
2021/03/12 03:42:04;;;;;;;25.42;3.72;;;5.20;90.10;;;;;;5125220;27;20059;-77
2021/03/12 03:44:33;;;;;;;35.95;5.75;;;5.10;90.10;;;;;;5118938;28;20052;-78
2021/03/12 03:47:02;;;;;;;16.92;3.63;;;5.20;90.00;;;;;;5119534;28;20048;-77
2021/03/12 03:49:30;;;;;;;25.33;3.40;;;5.20;90.00;;;;;;5119227;28;20062;-79
2021/03/12 03:51:58;;;;;;;22.92;5.55;;;5.10;90.00;;;;;;5119379;28;20051;-77
2021/03/12 03:54:30;;;;;;;31.25;3.78;;;5.10;90.10;;;;;;5119499;28;20226;-77
2021/03/12 03:56:58;;;;;;;20.88;3.33;;;5.10;90.10;;;;;;5119936;28;20032;-77
2021/03/12 03:59:25;;;;;;;18.70;3.63;;;5.10;90.10;;;;;;5119688;28;20044;-77
2021/03/12 04:01:52;;;;;;;23.73;3.78;;;5.00;90.10;;;;;;5119583;28;20054;-77
2021/03/12 04:04:19;;;;;;;20.63;3.85;;;5.00;90.10;;;;;;5119352;28;20058;-76
2021/03/12 04:06:46;;;;;;;18.00;3.28;;;5.00;90.20;;;;;;5119775;28;20039;-77
2021/03/12 04:09:14;;;;;;;16.15;3.75;;;5.00;90.10;;;;;;5119227;28;20048;-77
2021/03/12 04:11:42;;;;;;;17.55;4.95;;;5.00;89.90;;;;;;5118751;28;20133;-76
2021/03/12 04:14:09;;;;;;;23.70;3.22;;;5.00;90.00;;;;;;5118680;27;20070;-77
2021/03/12 04:16:38;;;;;;;23.63;5.40;;;5.00;89.80;;;;;;5119055;28;20048;-78
2021/03/12 04:19:06;;;;;;;21.80;3.67;;;5.00;89.50;;;;;;5118931;28;20043;-78
2021/03/12 04:21:34;;;;;;;25.30;4.85;;;5.00;89.40;;;;;;5121128;28;20416;-79
2021/03/12 04:24:01;;;;;;;21.85;3.30;;;5.00;89.30;;;;;;5118896;28;20337;-77
2021/03/12 04:26:28;;;;;;;17.80;3.92;;;5.00;89.20;;;;;;5121261;28;20050;-78
2021/03/12 04:28:54;;;;;;;17.63;2.85;;;5.00;89.30;;;;;;5118508;28;20051;-77
2021/03/12 04:31:22;;;;;;;13.93;3.58;;;4.90;89.30;;;;;;5119007;28;20325;-79
2021/03/12 04:33:51;;;;;;;21.73;3.58;;;4.90;89.30;;;;;;5118741;27;20043;-79
2021/03/12 04:36:18;;;;;;;20.70;4.18;;;4.90;89.10;;;;;;5118768;28;20039;-78
2021/03/12 04:38:45;;;;;;;21.58;3.20;;;5.00;89.00;;;;;;5118621;28;20405;-79
2021/03/12 04:41:13;;;;;;;17.67;3.90;;;5.00;88.70;;;;;;5118561;28;20363;-78
2021/03/12 04:43:41;;;;;;;22.15;3.72;;;5.00;88.70;;;;;;5118852;28;20058;-79
2021/03/12 04:46:08;;;;;;;14.35;2.42;;;4.90;88.80;;;;;;5118460;28;20043;-79
2021/03/12 04:48:36;;;;;;;18.92;3.05;;;4.90;89.00;;;;;;5125748;28;20038;-77
2021/03/12 04:51:05;;;;;;;17.33;3.15;;;4.90;88.90;;;;;;5118666;28;20035;-78
2021/03/12 04:53:32;;;;;;;15.73;3.08;;;5.00;88.80;;;;;;5118377;27;20044;-77
2021/03/12 04:55:59;;;;;;;27.40;3.22;;;4.80;88.90;;;;;;5118642;28;20035;-78
2021/03/12 04:58:27;;;;;;;19.27;3.42;;;4.90;89.00;;;;;;5118815;28;20040;-77
2021/03/12 05:00:53;;;;;;;17.55;2.92;;;4.90;89.20;;;;;;5118199;28;20032;-77
2021/03/12 05:03:20;;;;;;;18.73;2.88;;;4.90;89.20;;;;;;5118112;28;20058;-78
2021/03/12 05:05:47;;;;;;;24.92;3.30;;;5.20;89.50;;;;;;5118132;28;20051;-78
2021/03/12 05:08:14;;;;;;;16.75;3.70;;;4.90;89.50;;;;;;5118728;28;20062;-78
2021/03/12 05:10:58;;;;;;;20.52;4.18;;;4.80;89.50;;;;;;5124811;28;20059;-77
2021/03/12 05:13:24;;;;;;;18.17;3.95;;;4.80;90.00;;;;;;5117925;28;20055;-77
2021/03/12 05:15:51;;;;;;;20.85;4.95;;;4.80;90.00;;;;;;5118184;28;20039;-78
2021/03/12 05:18:17;;;;;;;24.13;3.35;;;4.80;90.00;;;;;;5117893;28;20337;-78
2021/03/12 05:20:44;;;;;;;32.30;3.75;;;4.80;90.10;;;;;;5117625;28;20039;-78
2021/03/12 05:23:10;;;;;;;17.77;3.53;;;4.80;90.20;;;;;;5117851;28;20036;-78
2021/03/12 05:25:36;;;;;;;20.80;3.00;;;4.80;90.30;;;;;;5117994;28;20051;-77
2021/03/12 05:28:03;;;;;;;16.05;2.92;;;4.80;90.20;;;;;;5117751;28;20063;-77
2021/03/12 05:30:30;;;;;;;24.13;3.50;;;4.80;90.30;;;;;;5118064;28;20051;-77
2021/03/12 05:32:56;;;;;;;22.05;3.63;;;4.80;90.50;;;;;;5117639;28;20044;-78
2021/03/12 05:35:22;;;;;;;22.35;3.22;;;4.90;90.30;;;;;;5117565;28;20046;-78
2021/03/12 05:37:49;;;;;;;22.05;4.30;;;4.90;90.30;;;;;;5117494;28;20051;-79
2021/03/12 05:40:15;;;;;;;19.88;3.90;;;4.90;90.40;;;;;;5117047;28;20031;-78
2021/03/12 05:42:43;;;;;;;15.48;3.30;;;4.90;90.30;;;;;;5117217;28;20055;-77
2021/03/12 05:45:10;;;;;;;20.88;3.20;;;4.90;90.30;;;;;;5117112;28;20044;-78
2021/03/12 05:47:37;;;;;;;21.20;3.45;;;5.00;90.30;;;;;;5117076;28;20044;-79
2021/03/12 05:50:05;;;;;;;19.52;3.45;;;5.00;90.50;;;;;;5116603;28;20329;-78
2021/03/12 05:52:33;;;;;;;20.48;3.83;;;5.00;90.30;;;;;;5116646;28;20055;-77
2021/03/12 05:55:00;;;;;;;13.68;3.10;;;5.00;90.30;;;;;;5121890;28;20047;-78
2021/03/12 05:57:29;;;;;;;20.45;3.25;;;5.00;90.30;;;;;;5117028;28;20052;-78
2021/03/12 05:59:59;;;;;;;21.05;3.45;;;5.00;90.40;;;;;;5118584;28;20432;-78
2021/03/12 06:02:29;;;;;;;24.23;4.60;;;5.10;90.00;;;;;;5116921;28;20062;-79
2021/03/12 06:04:56;;;;;;;22.17;3.08;;;5.10;90.10;;;;;;5116673;27;20055;-79
2021/03/12 06:07:22;;;;;;;19.55;3.13;;;5.10;90.00;;;;;;5117314;28;20043;-78
2021/03/12 06:09:49;;;;;;;22.67;3.28;;;5.10;90.10;;;;;;5117168;28;20047;-77
2021/03/12 06:12:15;;;;;;;22.75;3.00;;;5.10;90.10;;;;;;5117061;28;20054;-77
2021/03/12 06:14:59;;;;;;;19.60;3.83;;;5.10;90.00;;;;;;5117656;28;20059;-78
2021/03/12 06:17:41;;;;;;;16.58;3.33;;;5.20;89.80;;;;;;5117523;28;20040;-77
2021/03/12 06:20:12;;;;;;;16.95;3.38;;;5.20;90.00;;;;;;5116728;28;20048;-77
2021/03/12 06:22:48;;;;;;;21.30;3.75;;;5.10;90.10;;;;;;5116761;28;20054;-78
2021/03/12 06:25:29;;;;;;;18.65;3.22;;;5.20;90.00;;;;;;5116548;28;20047;-78
2021/03/12 06:28:10;;;;;;;16.40;4.07;;;5.20;89.80;;;;;;5116509;28;20043;-78
2021/03/12 06:30:37;;;;;;;14.88;3.53;;;5.30;89.90;;;;;;5116297;28;20052;-77
2021/03/12 06:33:04;;;;;;;16.73;2.80;;;5.30;89.70;;;;;;5116334;28;20039;-78
2021/03/12 06:35:38;;;;;;;26.65;4.82;;;5.40;89.80;;;;;;5116110;28;20048;-77
2021/03/12 06:38:09;;;;;;;15.15;2.88;;;5.40;89.70;;;;;;5116578;28;20051;-77
2021/03/12 06:40:39;;;;;;;24.65;4.75;;;5.50;89.60;;;;;;5120502;28;20417;-77
2021/03/12 06:43:10;;;;;;;22.98;3.63;;;5.50;89.70;;;;;;5116145;28;20058;-76
2021/03/12 06:45:40;;;;;;;16.63;3.53;;;5.60;89.50;;;;;;5115846;28;20343;-78
2021/03/12 06:48:20;;;;;;;26.65;3.65;;;5.70;89.60;;;;;;5116549;28;20336;-78
2021/03/12 06:50:49;;;;;;;15.25;3.10;;;5.70;89.10;;;;;;5116620;28;20047;-79
2021/03/12 06:53:19;;;;;;;20.33;3.65;;;5.70;88.80;;;;;;5116514;28;20032;-79
2021/03/12 06:55:45;;;;;;;16.35;2.95;;;5.80;88.10;;;;;;5115477;28;20044;-79
2021/03/12 06:58:12;;;;;;;23.48;4.28;;;5.80;88.10;;;;;;5115890;28;20048;-77
2021/03/12 07:00:38;;;;;;;22.05;3.42;;;5.90;88.00;;;;;;5115622;28;20048;-78
2021/03/12 07:03:22;;;;;;;20.38;4.07;;;5.90;87.40;;;;;;5118587;28;20062;-79
2021/03/12 07:06:07;;;;;;;21.67;3.58;;;5.90;87.00;;;;;;5119783;28;20054;-77
2021/03/12 07:08:42;;;;;;;23.77;3.28;;;5.90;87.20;;;;;;5119521;28;20348;-78
2021/03/12 07:11:22;;;;;;;22.15;3.22;;;5.90;87.60;;;;;;5120053;28;20048;-79
2021/03/12 07:13:53;;;;;;;16.35;3.38;;;5.90;87.50;;;;;;5120038;28;20044;-78
2021/03/12 07:16:20;;;;;;;20.05;4.28;;;5.90;87.70;;;;;;5119509;28;20046;-88
2021/03/12 07:18:46;;;;;;;13.95;3.75;;;6.10;87.50;;;;;;5120288;28;20306;-77
2021/03/12 07:21:16;;;;;;;22.75;3.70;;;6.00;87.30;;;;;;5120253;28;20055;-76
2021/03/12 07:23:45;;;;;;;24.80;4.63;;;6.10;87.00;;;;;;5122112;28;20043;-78
2021/03/12 07:26:13;;;;;;;27.25;4.70;;;6.20;86.50;;;;;;5122986;28;20048;-78
2021/03/12 07:28:41;;;;;;;22.17;4.45;;;6.30;86.10;;;;;;5119707;28;20051;-78
2021/03/12 07:31:18;;;;;;;22.00;4.75;;;6.40;86.10;;;;;;5119907;28;20425;-78
2021/03/12 07:33:52;;;;;;;20.98;3.90;;;6.40;85.80;;;;;;5119233;28;20055;-76
2021/03/12 07:36:22;;;;;;;19.63;4.70;;;6.50;85.90;;;;;;5119776;28;20039;-76
2021/03/12 07:38:51;;;;;;;18.10;4.30;;;6.50;85.30;;;;;;5119795;28;20043;-77
2021/03/12 07:41:18;;;;;;;20.25;4.18;;;6.60;85.80;;;;;;5119883;28;20058;-77
2021/03/12 07:43:45;;;;;;;27.00;5.95;;;6.60;85.80;;;;;;5119517;28;20044;-76
2021/03/12 07:46:14;;;;;;;19.67;4.55;;;6.70;85.60;;;;;;5125445;28;20055;-74
2021/03/12 07:48:40;;;;;;;20.38;5.85;;;6.70;85.00;;;;;;5121782;28;20041;-78
2021/03/12 07:51:12;;;;;;;30.23;4.10;;;6.80;85.40;;;;;;5119743;28;20039;-77
2021/03/12 07:53:50;;;;;;;20.75;3.95;;;6.70;85.40;;;;;;5119066;28;20319;-78
2021/03/12 07:56:37;;;;;;;19.98;4.68;;;6.80;84.90;;;;;;5100728;28;20039;-77
2021/03/12 07:59:03;;;;;;;24.65;5.93;;;6.80;85.10;;;;;;5118491;28;20047;-77
2021/03/12 08:01:47;;;;;;;28.67;4.65;;;6.80;84.90;;;;;;5117737;28;20336;-78
2021/03/12 08:04:30;;;;;;;19.45;4.07;;;6.90;86.00;;;;;;5117549;28;20043;-77
2021/03/12 08:06:58;;;;;;;28.73;5.90;;;7.00;85.50;;;;;;5118552;28;20043;-77
2021/03/12 08:09:37;;;;;;;26.23;4.65;;;7.00;85.10;;;;;;5122871;28;20051;-79
2021/03/12 08:12:04;;;;;;;20.88;5.22;;;7.00;84.70;;;;;;5118197;28;20048;-79
2021/03/12 08:14:32;;;;;;;34.65;5.07;;;7.00;84.50;;;;;;5122403;28;20044;-79
2021/03/12 08:17:04;;;;;;;34.10;5.20;;;7.10;84.60;;;;;;5117676;28;20044;-78
2021/03/12 08:19:32;;;;;;;26.92;5.47;;;7.10;84.50;;;;;;5118734;28;20053;-76
2021/03/12 08:21:59;;;;;;;28.23;4.82;;;7.10;84.40;;;;;;5118774;28;20314;-76
2021/03/12 08:24:49;;;;;;;24.58;4.45;;;7.20;84.60;;;;;;5119125;28;20044;-77
2021/03/12 08:27:40;;;;;;;22.77;5.38;;;7.20;83.70;;;;;;5118909;28;20043;-77
2021/03/12 08:30:38;;;;;;;23.98;4.07;;;7.40;84.90;;;;;;5118856;28;20448;-77
2021/03/12 08:33:24;;;;;;;31.00;5.47;;;7.40;84.00;;;;;;5117634;28;20048;-77
2021/03/12 08:35:51;;;;;;;19.48;4.20;;;7.40;82.10;;;;;;5118069;28;20043;-75
2021/03/12 08:38:27;;;;;;;19.08;3.85;;;7.40;82.10;;;;;;5120881;28;20076;-79
2021/03/12 08:40:58;;;;;;;14.32;4.20;;;7.60;82.10;;;;;;5117727;28;20059;-79
2021/03/12 08:43:25;;;;;;;19.88;3.65;;;8.00;82.00;;;;;;5117577;28;20048;-79
2021/03/12 08:45:57;;;;;;;40.50;5.18;;;7.70;82.10;;;;;;5117358;28;20051;-78
2021/03/12 08:48:33;;;;;;;32.45;4.30;;;7.70;82.80;;;;;;5117560;27;20067;-78
2021/03/12 08:51:02;;;;;;;20.63;3.92;;;7.70;81.90;;;;;;5117773;28;20421;-79
2021/03/12 08:53:34;;;;;;;27.98;4.28;;;7.80;82.40;;;;;;5119610;28;20054;-76
2021/03/12 08:56:03;;;;;;;21.60;3.72;;;7.80;81.50;;;;;;5123004;28;20050;-78
2021/03/12 08:58:34;;;;;;;24.42;4.10;;;7.80;81.10;;;;;;5120188;28;20044;-79
2021/03/12 09:01:13;;;;;;;23.63;4.65;;;7.70;79.40;;;;;;5117107;28;20337;-79
2021/03/12 09:04:03;;;;;;;20.73;4.10;;;7.70;80.60;;;;;;5116314;28;20058;-78
2021/03/12 09:06:49;;;;;;;20.40;4.47;;;7.70;79.00;;;;;;5116145;28;20062;-81
2021/03/12 09:09:35;;;;;;;17.45;3.50;;;7.70;79.60;;;;;;5116417;28;20055;-76
2021/03/12 09:12:21;;;;;;;22.13;4.35;;;7.70;79.80;;;;;;5116698;28;20451;-78
2021/03/12 09:15:08;;;;;;;23.08;3.95;;;7.70;80.40;;;;;;5115868;28;20044;-79
2021/03/12 09:17:38;;;;;;;19.13;3.83;;;7.70;80.30;;;;;;5116359;28;20040;-79
2021/03/12 09:20:05;;;;;;;23.80;4.85;;;7.70;80.60;;;;;;5116943;28;20372;-78
2021/03/12 09:22:32;;;;;;;20.08;3.55;;;7.80;80.70;;;;;;5116611;28;20334;-79
2021/03/12 09:25:01;;;;;;;23.85;4.57;;;7.80;80.50;;;;;;5116975;28;20333;-79
2021/03/12 09:27:27;;;;;;;21.67;4.75;;;7.80;80.70;;;;;;5117023;28;20055;-79
2021/03/12 09:29:53;;;;;;;26.13;4.13;;;7.70;81.00;;;;;;5117447;28;20047;-78
2021/03/12 09:32:19;;;;;;;26.50;4.18;;;7.80;80.80;;;;;;5116662;28;20436;-78
2021/03/12 09:34:46;;;;;;;21.83;4.25;;;7.70;80.70;;;;;;5116411;28;20051;-78
2021/03/12 09:37:12;;;;;;;23.17;4.97;;;8.00;80.80;;;;;;5117238;28;20412;-78
2021/03/12 09:39:40;;;;;;;21.52;4.45;;;7.70;80.40;;;;;;5127844;28;20038;-77
2021/03/12 09:42:11;;;;;;;26.02;3.92;;;7.80;81.50;;;;;;5115912;28;20035;-78
2021/03/12 09:44:38;;;;;;;20.55;3.47;;;7.80;81.20;;;;;;5115863;28;20046;-77
2021/03/12 09:47:09;;;;;;;18.67;4.32;;;7.90;80.60;;;;;;5116281;28;20043;-77
2021/03/12 09:49:42;;;;;;;20.15;4.15;;;8.10;79.70;;;;;;5116270;28;20055;-77
2021/03/12 09:52:13;;;;;;;26.95;5.13;;;8.20;79.60;;;;;;5116126;28;20059;-76
2021/03/12 09:54:41;;;;;;;25.77;4.20;;;8.20;79.10;;;;;;5116158;28;20336;-77
2021/03/12 09:57:09;;;;;;;19.60;4.20;;;8.20;78.90;;;;;;5116437;28;20050;-77
2021/03/12 09:59:37;;;;;;;22.60;4.50;;;8.40;79.00;;;;;;5117005;28;20098;-77
2021/03/12 10:02:08;;;;;;;24.85;4.65;;;8.50;78.40;;;;;;5116870;28;20048;-77
2021/03/12 10:04:36;;;;;;;23.23;4.22;;;8.40;77.90;;;;;;5116528;28;20325;-77
2021/03/12 10:07:05;;;;;;;31.13;4.57;;;8.40;78.40;;;;;;5116880;28;20377;-77
2021/03/12 10:09:33;;;;;;;31.05;5.93;;;8.20;78.90;;;;;;5116952;28;20436;-77
2021/03/12 10:12:01;;;;;;;31.35;4.15;;;7.90;79.70;;;;;;5117045;28;20043;-77
2021/03/12 10:14:38;;;;;;;25.20;4.47;;;7.80;81.20;;;;;;5115351;28;20134;-77
2021/03/12 10:17:05;;;;;;;17.15;3.30;;;7.40;81.90;;;;;;5120391;28;20063;-77
2021/03/12 10:19:50;;;;;;;24.25;4.32;;;7.30;84.30;;;;;;5135744;27;20039;-78
2021/03/12 10:22:19;;;;;;;18.10;3.10;;;7.10;85.70;;;;;;5117196;28;20047;-79
2021/03/12 10:25:11;;;;;;;17.98;3.83;;;7.10;86.90;;;;;;5119153;28;20081;-75
2021/03/12 10:27:59;;;;;;;23.98;4.40;;;7.00;87.80;;;;;;5117042;28;20409;-76
2021/03/12 10:30:46;;;;;;;23.25;4.43;;;7.00;88.40;;;;;;5115652;28;20066;-77
2021/03/12 10:33:17;;;;;;;17.60;3.75;;;7.10;89.50;;;;;;5116208;28;20067;-76
2021/03/12 10:35:46;;;;;;;25.75;4.10;;;7.30;89.60;;;;;;5115983;28;20414;-75
2021/03/12 10:38:16;;;;;;;18.13;3.42;;;7.50;88.60;;;;;;5115723;28;20050;-76
2021/03/12 10:40:44;;;;;;;23.85;4.22;;;7.60;88.20;;;;;;5116481;28;20047;-77
2021/03/12 10:43:22;;;;;;;20.75;5.03;;;7.60;87.50;;;;;;5115980;28;20337;-76
2021/03/12 10:45:55;;;;;;;24.73;5.78;;;7.60;88.00;;;;;;5116780;28;20054;-77
2021/03/12 10:48:27;;;;;;;18.75;4.65;;;7.50;87.80;;;;;;5115546;28;20368;-77
2021/03/12 10:50:56;;;;;;;25.92;5.70;;;7.60;87.00;;;;;;5115889;28;20052;-77
2021/03/12 10:53:23;;;;;;;33.63;5.53;;;7.70;86.60;;;;;;5115421;28;20044;-76
2021/03/12 10:55:51;;;;;;;30.77;5.50;;;8.00;85.10;;;;;;5106055;28;20051;-78
2021/03/12 10:58:25;;;;;;;30.92;6.53;;;8.00;85.60;;;;;;5115004;28;20046;-77
2021/03/12 11:01:10;;;;;;;27.70;5.95;;;8.30;85.20;;;;;;5113511;28;20039;-77
2021/03/12 11:03:38;;;;;;;31.33;6.25;;;8.90;83.20;;;;;;5113931;28;20043;-77
2021/03/12 11:06:05;;;;;;;28.00;5.93;;;8.70;82.50;;;;;;5115568;28;20051;-78
2021/03/12 11:08:32;;;;;;;31.13;5.90;;;8.50;82.90;;;;;;5124041;28;20052;-77
2021/03/12 11:11:00;;;;;;;30.58;7.47;;;8.50;83.70;;;;;;5117015;28;20452;-77
2021/03/12 11:13:27;;;;;;;26.38;5.88;;;8.40;84.20;;;;;;5112702;28;20058;-76
2021/03/12 11:15:54;;;;;;;33.33;6.95;;;8.30;85.00;;;;;;5114391;28;20059;-78
2021/03/12 11:18:21;;;;;;;33.88;6.32;;;8.00;86.30;;;;;;5105170;28;20044;-79
2021/03/12 11:20:47;;;;;;;28.65;5.63;;;7.80;87.80;;;;;;5114900;28;20046;-77
2021/03/12 11:23:13;;;;;;;31.65;5.57;;;7.60;89.70;;;;;;5115067;28;20044;-78
2021/03/12 11:25:40;;;;;;;27.00;5.50;;;7.40;90.50;;;;;;5115012;28;20043;-77
2021/03/12 11:28:06;;;;;;;30.02;5.95;;;7.20;90.60;;;;;;5112725;28;20039;-77
2021/03/12 11:30:34;;;;;;;21.23;6.07;;;7.20;90.80;;;;;;5114580;28;20046;-78
2021/03/12 11:33:02;;;;;;;23.83;5.57;;;7.30;90.90;;;;;;5112328;28;20042;-78
2021/03/12 11:35:29;;;;;;;28.23;6.35;;;7.30;90.90;;;;;;5115545;28;20054;-78
2021/03/12 11:37:57;;;;;;;18.25;4.07;;;7.50;90.60;;;;;;5115214;28;20130;-78
2021/03/12 11:40:23;;;;;;;33.47;5.18;;;7.50;89.60;;;;;;5114548;28;20039;-78
2021/03/12 11:42:49;;;;;;;16.23;4.13;;;7.50;88.90;;;;;;5114633;28;20046;-78
2021/03/12 11:45:18;;;;;;;17.25;3.45;;;7.40;90.10;;;;;;5114222;28;20409;-76
2021/03/12 11:47:44;;;;;;;18.70;4.07;;;7.20;90.60;;;;;;5117465;28;20053;-77
2021/03/12 11:50:14;;;;;;;8.68;2.85;;;7.10;91.00;;;;;;5120045;28;20043;-77
2021/03/12 11:52:41;;;;;;;15.20;3.20;;;6.90;91.10;;;;;;5120645;27;20048;-78
2021/03/12 11:55:08;;;;;;;12.00;3.85;;;6.80;91.30;;;;;;5121721;28;20413;-78
2021/03/12 11:57:36;;;;;;;9.70;3.50;;;6.70;91.30;;;;;;5123231;28;20070;-77
2021/03/12 12:00:06;;;;;;;15.50;3.15;;;6.70;91.60;;;;;;5119024;28;20440;-77
2021/03/12 12:02:33;;;;;;;13.98;4.00;;;6.70;91.60;;;;;;5117508;28;20052;-77
2021/03/12 12:04:59;;;;;;;9.60;3.92;;;6.70;91.50;;;;;;5119099;28;20432;-77
2021/03/12 12:07:25;;;;;;;12.20;4.03;;;6.80;91.60;;;;;;5118722;28;20054;-78
2021/03/12 12:09:51;;;;;;;15.27;4.03;;;6.80;91.60;;;;;;5119058;28;20333;-78
2021/03/12 12:12:19;;;;;;;15.27;4.25;;;6.90;91.90;;;;;;5118988;28;20048;-78
2021/03/12 12:14:46;;;;;;;13.02;4.50;;;7.00;91.60;;;;;;5118490;28;20401;-78
2021/03/12 12:17:13;;;;;;;14.18;4.97;;;7.00;91.60;;;;;;5118774;28;20071;-77
2021/03/12 12:19:40;;;;;;;14.32;5.15;;;7.10;91.70;;;;;;5117648;28;20031;-78
2021/03/12 12:22:09;;;;;;;17.67;4.80;;;7.20;91.60;;;;;;5115645;28;20032;-76
2021/03/12 12:24:36;;;;;;;10.20;3.75;;;7.20;91.60;;;;;;5113373;28;20321;-77
2021/03/12 12:27:03;;;;;;;20.85;4.60;;;7.30;91.50;;;;;;5117520;28;20066;-77
2021/03/12 12:29:30;;;;;;;10.70;3.83;;;7.40;91.60;;;;;;5117398;28;20051;-78
2021/03/12 12:31:56;;;;;;;13.60;4.18;;;7.60;91.60;;;;;;5120083;28;20047;-77
2021/03/12 12:34:23;;;;;;;13.90;3.63;;;7.80;90.90;;;;;;5118363;28;20052;-77
2021/03/12 12:36:51;;;;;;;16.40;3.65;;;7.90;90.40;;;;;;5117682;27;20044;-76
2021/03/12 12:39:18;;;;;;;20.05;3.58;;;7.90;90.60;;;;;;5122587;28;20055;-76
2021/03/12 12:41:45;;;;;;;15.13;3.80;;;8.00;90.40;;;;;;5118607;28;20333;-76
2021/03/12 12:44:13;;;;;;;13.50;3.25;;;8.10;90.40;;;;;;5118332;28;20047;-76
2021/03/12 12:46:41;;;;;;;14.25;3.47;;;8.30;90.10;;;;;;5119560;28;20444;-77
2021/03/12 12:49:08;;;;;;;15.48;2.78;;;8.50;88.60;;;;;;5119248;28;20039;-78
2021/03/12 12:51:35;;;;;;;12.35;3.13;;;8.90;88.30;;;;;;5118647;28;20052;-78
2021/03/12 12:54:02;;;;;;;16.05;3.17;;;9.20;86.70;;;;;;5118167;28;20046;-77
2021/03/12 12:56:29;;;;;;;22.38;4.80;;;9.60;85.70;;;;;;5117407;28;20349;-77
2021/03/12 12:58:55;;;;;;;13.73;3.13;;;9.70;83.30;;;;;;5117273;28;20318;-78
2021/03/12 13:01:22;;;;;;;13.25;3.38;;;9.80;82.70;;;;;;5116952;28;20039;-79